Time,TemperatureF,DewpointF,PressureIn,WindDirection,WindDirectionDegrees,WindSpeedMPH,WindSpeedGustMPH,Humidity,HourlyPrecipIn,Conditions,Clouds,dailyrainin,SolarRadiationWatts/m^2,SoftwareType,DateUTC
2013-03-06 00:02:00,28.0,26.0,-100.00,ESE,113,1.0,3.0,93,0.00,,,0.12,0.000000,,2013-03-06 05:02:00,
2013-03-06 00:12:00,28.0,26.0,-100.00,ESE,113,1.0,3.0,93,0.00,,,0.12,0.000000,,2013-03-06 05:12:00,
2013-03-06 00:22:00,28.0,26.0,-100.00,ESE,113,1.0,3.0,93,0.00,,,0.12,0.000000,,2013-03-06 05:22:00,
2013-03-06 00:52:00,28.0,27.0,-100.00,West,280,1.0,3.0,94,0.00,,,0.12,0.000000,,2013-03-06 05:52:00,
2013-03-06 01:02:00,28.0,27.0,-100.00,West,280,1.0,3.0,94,0.00,,,0.12,0.000000,,2013-03-06 06:02:00,
2013-03-06 01:11:00,28.0,27.0,-100.00,West,280,1.0,3.0,94,0.00,,,0.12,0.000000,,2013-03-06 06:11:00,
2013-03-06 01:22:00,28.0,27.0,-100.00,West,280,1.0,3.0,94,0.00,,,0.12,0.000000,,2013-03-06 06:22:00,
2013-03-06 01:52:00,31.0,29.0,-100.00,SW,215,1.0,6.0,91,0.00,,,0.12,0.000000,,2013-03-06 06:52:00,
2013-03-06 02:02:00,31.0,29.0,-100.00,SW,215,1.0,6.0,91,0.00,,,0.12,0.000000,,2013-03-06 07:02:00,
2013-03-06 02:11:00,31.0,29.0,-100.00,SW,215,1.0,6.0,91,0.00,,,0.12,0.000000,,2013-03-06 07:11:00,
2013-03-06 02:22:00,31.0,29.0,-100.00,SW,215,1.0,6.0,91,0.00,,,0.12,0.000000,,2013-03-06 07:22:00,
2013-03-06 02:52:00,31.0,26.0,-100.00,West,266,2.0,5.0,82,0.00,,,0.12,0.000000,,2013-03-06 07:52:00,
2013-03-06 03:01:00,31.0,26.0,-100.00,West,266,2.0,5.0,82,0.00,,,0.12,0.000000,,2013-03-06 08:01:00,
2013-03-06 03:11:00,31.0,26.0,-100.00,West,266,2.0,5.0,82,0.00,,,0.12,0.000000,,2013-03-06 08:11:00,
2013-03-06 03:21:00,31.0,26.0,-100.00,West,266,2.0,5.0,82,0.00,,,0.12,0.000000,,2013-03-06 08:21:00,
2013-03-06 03:52:00,33.0,26.0,-100.00,NE,56,3.0,10.0,74,0.00,,,0.12,0.000000,,2013-03-06 08:52:00,
2013-03-06 04:02:00,33.0,26.0,-100.00,NE,56,3.0,10.0,74,0.00,,,0.12,0.000000,,2013-03-06 09:02:00,
2013-03-06 04:12:00,33.0,26.0,-100.00,NE,56,3.0,10.0,74,0.00,,,0.12,0.000000,,2013-03-06 09:12:00,
2013-03-06 04:22:00,33.0,26.0,-100.00,NE,56,3.0,10.0,74,0.00,,,0.12,0.000000,,2013-03-06 09:22:00,
2013-03-06 04:52:00,33.0,25.0,-100.00,NW,316,2.0,11.0,73,0.00,,,0.12,0.000000,,2013-03-06 09:52:00,
2013-03-06 05:02:00,33.0,25.0,-100.00,NW,316,2.0,11.0,73,0.00,,,0.12,0.000000,,2013-03-06 10:02:00,
2013-03-06 05:11:00,33.0,25.0,-100.00,NW,316,2.0,11.0,73,0.00,,,0.12,0.000000,,2013-03-06 10:11:00,
2013-03-06 05:22:00,33.0,25.0,-100.00,NW,316,2.0,11.0,73,0.00,,,0.12,0.000000,,2013-03-06 10:22:00,
2013-03-06 05:52:00,33.0,26.0,-100.00,ENE,70,2.0,11.0,74,0.00,,,0.12,0.000000,,2013-03-06 10:52:00,
2013-03-06 06:02:00,33.0,26.0,-100.00,ENE,70,2.0,11.0,74,0.00,,,0.12,0.000000,,2013-03-06 11:02:00,
2013-03-06 06:11:00,33.0,26.0,-100.00,ENE,70,2.0,11.0,74,0.00,,,0.12,0.000000,,2013-03-06 11:11:00,
2013-03-06 06:22:00,33.0,26.0,-100.00,ENE,70,2.0,11.0,74,0.00,,,0.12,0.000000,,2013-03-06 11:22:00,
2013-03-06 06:52:00,32.0,26.0,-100.00,ESE,113,2.0,4.0,79,0.00,,,0.12,0.000000,,2013-03-06 11:52:00,
2013-03-06 07:02:00,32.0,26.0,-100.00,ESE,113,2.0,4.0,79,0.00,,,0.12,0.000000,,2013-03-06 12:02:00,
2013-03-06 07:12:00,32.0,26.0,-100.00,ESE,113,2.0,4.0,79,0.00,,,0.12,0.000000,,2013-03-06 12:12:00,
2013-03-06 07:22:00,32.0,26.0,-100.00,ESE,113,2.0,4.0,79,0.00,,,0.12,0.000000,,2013-03-06 12:22:00,
2013-03-06 07:53:00,33.0,25.0,-100.00,SE,139,4.0,9.0,71,0.00,,,0.12,27.000000,,2013-03-06 12:53:00,
2013-03-06 08:02:00,33.0,25.0,-100.00,SE,139,4.0,9.0,71,0.00,,,0.12,27.000000,,2013-03-06 13:02:00,
2013-03-06 08:12:00,33.0,25.0,-100.00,SE,139,4.0,9.0,71,0.00,,,0.12,27.000000,,2013-03-06 13:12:00,
2013-03-06 08:22:00,33.0,25.0,-100.00,SE,139,4.0,9.0,71,0.00,,,0.12,27.000000,,2013-03-06 13:22:00,
2013-03-06 08:52:00,34.0,23.0,-100.00,East,94,5.0,17.0,63,0.00,,,0.12,63.000000,,2013-03-06 13:52:00,
2013-03-06 09:02:00,34.0,23.0,-100.00,East,94,5.0,17.0,63,0.00,,,0.12,63.000000,,2013-03-06 14:02:00,
2013-03-06 09:11:00,34.0,23.0,-100.00,East,94,5.0,17.0,63,0.00,,,0.12,63.000000,,2013-03-06 14:11:00,
2013-03-06 09:22:00,34.0,23.0,-100.00,East,94,5.0,17.0,63,0.00,,,0.12,63.000000,,2013-03-06 14:22:00,
2013-03-06 09:53:00,34.0,23.0,-100.00,ENE,72,7.0,13.0,64,0.00,,,0.12,99.000000,,2013-03-06 14:53:00,
2013-03-06 10:02:00,34.0,23.0,-100.00,ENE,72,7.0,13.0,64,0.00,,,0.12,99.000000,,2013-03-06 15:02:00,
2013-03-06 10:12:00,34.0,23.0,-100.00,ENE,72,7.0,13.0,64,0.00,,,0.12,99.000000,,2013-03-06 15:12:00,
2013-03-06 10:22:00,34.0,23.0,-100.00,ENE,72,7.0,13.0,64,0.00,,,0.12,99.000000,,2013-03-06 15:22:00,
2013-03-06 10:52:00,36.0,21.0,-100.00,ENE,77,5.0,17.0,55,0.00,,,0.12,165.000000,,2013-03-06 15:52:00,
2013-03-06 11:02:00,36.0,21.0,-100.00,ENE,77,5.0,17.0,55,0.00,,,0.12,165.000000,,2013-03-06 16:02:00,
2013-03-06 11:12:00,36.0,21.0,-100.00,ENE,77,5.0,17.0,55,0.00,,,0.12,165.000000,,2013-03-06 16:12:00,
2013-03-06 11:21:00,36.0,21.0,-100.00,ENE,77,5.0,17.0,55,0.00,,,0.12,165.000000,,2013-03-06 16:21:00,
2013-03-06 11:52:00,35.0,20.0,-100.00,ENE,69,6.0,15.0,54,0.00,,,0.00,221.000000,,2013-03-06 16:52:00,
2013-03-06 12:01:00,35.0,20.0,-100.00,ENE,69,6.0,15.0,54,0.00,,,0.00,221.000000,,2013-03-06 17:01:00,
2013-03-06 12:11:00,35.0,20.0,-100.00,ENE,69,6.0,15.0,54,0.00,,,0.00,221.000000,,2013-03-06 17:11:00,
2013-03-06 12:22:00,35.0,20.0,-100.00,ENE,69,6.0,15.0,54,0.00,,,0.00,221.000000,,2013-03-06 17:22:00,
2013-03-06 12:25:00,36.0,21.0,-100.00,ESE,112,4.0,13.0,54,0.00,,,0.00,169.000000,,2013-03-06 17:25:00,
2013-03-06 12:53:00,36.0,21.0,-100.00,ESE,112,4.0,13.0,54,0.00,,,0.00,169.000000,,2013-03-06 17:53:00,
2013-03-06 13:02:00,36.0,21.0,-100.00,ESE,112,4.0,13.0,54,0.00,,,0.00,169.000000,,2013-03-06 18:02:00,
2013-03-06 13:53:00,38.0,19.0,-100.00,ENE,68,5.0,15.0,46,0.00,,,0.00,297.000000,,2013-03-06 18:53:00,
2013-03-06 14:02:00,38.0,19.0,-100.00,ENE,68,5.0,15.0,46,0.00,,,0.00,297.000000,,2013-03-06 19:02:00,
2013-03-06 14:11:00,38.0,19.0,-100.00,ENE,68,5.0,15.0,46,0.00,,,0.00,297.000000,,2013-03-06 19:11:00,
2013-03-06 14:22:00,38.0,19.0,-100.00,ENE,68,5.0,15.0,46,0.00,,,0.00,297.000000,,2013-03-06 19:22:00,
2013-03-06 14:53:00,36.0,19.0,-100.00,ENE,75,6.0,13.0,50,0.00,,,0.00,203.000000,,2013-03-06 19:53:00,
2013-03-06 15:02:00,36.0,19.0,-100.00,ENE,75,6.0,13.0,50,0.00,,,0.00,203.000000,,2013-03-06 20:02:00,
2013-03-06 15:12:00,36.0,19.0,-100.00,ENE,75,6.0,13.0,50,0.00,,,0.00,203.000000,,2013-03-06 20:12:00,
2013-03-06 15:22:00,36.0,19.0,-100.00,ENE,75,6.0,13.0,50,0.00,,,0.00,203.000000,,2013-03-06 20:22:00,
2013-03-06 15:53:00,36.0,20.0,-100.00,East,84,6.0,14.0,51,0.00,,,0.00,139.000000,,2013-03-06 20:53:00,
2013-03-06 16:02:00,36.0,20.0,-100.00,East,84,6.0,14.0,51,0.00,,,0.00,139.000000,,2013-03-06 21:02:00,
2013-03-06 16:12:00,36.0,20.0,-100.00,East,84,6.0,14.0,51,0.00,,,0.00,139.000000,,2013-03-06 21:12:00,
2013-03-06 16:22:00,36.0,20.0,-100.00,East,84,6.0,14.0,51,0.00,,,0.00,139.000000,,2013-03-06 21:22:00,
2013-03-06 16:52:00,34.0,19.0,-100.00,ENE,66,6.0,18.0,54,0.00,,,0.00,81.000000,,2013-03-06 21:52:00,
2013-03-06 17:02:00,34.0,19.0,-100.00,ENE,66,6.0,18.0,54,0.00,,,0.00,81.000000,,2013-03-06 22:02:00,
2013-03-06 17:11:00,34.0,19.0,-100.00,ENE,66,6.0,18.0,54,0.00,,,0.00,81.000000,,2013-03-06 22:11:00,
2013-03-06 17:22:00,34.0,19.0,-100.00,ENE,66,6.0,18.0,54,0.00,,,0.00,81.000000,,2013-03-06 22:22:00,
2013-03-06 17:52:00,33.0,20.0,-100.00,ENE,60,5.0,13.0,59,0.00,,,0.00,40.000000,,2013-03-06 22:52:00,
2013-03-06 18:02:00,33.0,20.0,-100.00,ENE,60,5.0,13.0,59,0.00,,,0.00,40.000000,,2013-03-06 23:02:00,
2013-03-06 18:11:00,33.0,20.0,-100.00,ENE,60,5.0,13.0,59,0.00,,,0.00,40.000000,,2013-03-06 23:11:00,
2013-03-06 18:22:00,33.0,20.0,-100.00,ENE,60,5.0,13.0,59,0.00,,,0.00,40.000000,,2013-03-06 23:22:00,
2013-03-06 18:52:00,31.0,21.0,-100.00,ENE,67,5.0,13.0,66,0.00,,,0.00,2.000000,,2013-03-06 23:52:00,
2013-03-06 19:02:00,31.0,21.0,-100.00,ENE,67,5.0,13.0,66,0.00,,,0.00,2.000000,,2013-03-07 00:02:00,
2013-03-06 19:11:00,31.0,21.0,-100.00,ENE,67,5.0,13.0,66,0.00,,,0.00,2.000000,,2013-03-07 00:11:00,
2013-03-06 19:22:00,31.0,21.0,-100.00,ENE,67,5.0,13.0,66,0.00,,,0.00,2.000000,,2013-03-07 00:22:00,
2013-03-06 19:52:00,31.0,20.0,-100.00,ENE,66,4.0,11.0,63,0.00,,,0.00,0.000000,,2013-03-07 00:52:00,
2013-03-06 20:02:00,31.0,20.0,-100.00,ENE,66,4.0,11.0,63,0.00,,,0.00,0.000000,,2013-03-07 01:02:00,
2013-03-06 20:12:00,31.0,20.0,-100.00,ENE,66,4.0,11.0,63,0.00,,,0.00,0.000000,,2013-03-07 01:12:00,
2013-03-06 20:22:00,31.0,20.0,-100.00,ENE,66,4.0,11.0,63,0.00,,,0.00,0.000000,,2013-03-07 01:22:00,
2013-03-06 20:52:00,30.0,20.0,-100.00,ENE,70,4.0,9.0,66,0.00,,,0.00,0.000000,,2013-03-07 01:52:00,
2013-03-06 21:01:00,30.0,20.0,-100.00,ENE,70,4.0,9.0,66,0.00,,,0.00,0.000000,,2013-03-07 02:01:00,
2013-03-06 21:11:00,30.0,20.0,-100.00,ENE,70,4.0,9.0,66,0.00,,,0.00,0.000000,,2013-03-07 02:11:00,
2013-03-06 21:21:00,30.0,20.0,-100.00,ENE,70,4.0,9.0,66,0.00,,,0.00,0.000000,,2013-03-07 02:21:00,
2013-03-06 22:02:00,29.0,18.0,-100.00,ENE,73,4.0,13.0,64,0.00,,,0.00,0.000000,,2013-03-07 03:02:00,
2013-03-06 22:12:00,29.0,18.0,-100.00,ENE,73,4.0,13.0,64,0.00,,,0.00,0.000000,,2013-03-07 03:12:00,
2013-03-06 22:22:00,29.0,18.0,-100.00,ENE,73,4.0,13.0,64,0.00,,,0.00,0.000000,,2013-03-07 03:22:00,
2013-03-06 22:52:00,29.0,16.0,-100.00,NE,56,4.0,14.0,59,0.00,,,0.00,0.000000,,2013-03-07 03:52:00,
2013-03-06 23:02:00,29.0,16.0,-100.00,NE,56,4.0,14.0,59,0.00,,,0.00,0.000000,,2013-03-07 04:02:00,
2013-03-06 23:12:00,29.0,16.0,-100.00,NE,56,4.0,14.0,59,0.00,,,0.00,0.000000,,2013-03-07 04:12:00,
2013-03-06 23:22:00,29.0,16.0,-100.00,NE,56,4.0,14.0,59,0.00,,,0.00,0.000000,,2013-03-07 04:22:00,
2013-03-06 23:52:00,29.0,17.0,-100.00,East,100,5.0,16.0,61,0.00,,,0.00,0.000000,,2013-03-07 04:52:00,